createdAt,value
2018-04-11T00:00:13.378Z,9.20
2018-04-11T00:02:40.855Z,8.80
2018-04-11T00:05:08.305Z,8.10
2018-04-11T00:07:35.763Z,8.30
2018-04-11T00:10:03.223Z,8.00
2018-04-11T00:12:30.681Z,7.80
2018-04-11T00:14:58.129Z,7.70
2018-04-11T00:17:25.582Z,7.80
2018-04-11T00:19:53.017Z,8.20
2018-04-11T00:22:20.465Z,8.00
2018-04-11T00:24:47.922Z,8.30
2018-04-11T00:27:15.367Z,8.10
2018-04-11T00:29:42.820Z,8.30
2018-04-11T00:32:10.251Z,8.80
2018-04-11T00:34:37.698Z,9.10
2018-04-11T00:37:05.142Z,8.30
2018-04-11T00:39:32.609Z,8.30
2018-04-11T00:42:00.061Z,8.50
2018-04-11T00:44:27.511Z,8.80
2018-04-11T00:46:54.972Z,8.90
2018-04-11T00:49:22.457Z,8.70
2018-04-11T00:51:49.902Z,8.30
2018-04-11T00:54:17.350Z,8.90
2018-04-11T00:56:44.802Z,8.90
2018-04-11T00:59:12.259Z,8.70
2018-04-11T01:01:39.710Z,8.50
2018-04-11T01:04:07.155Z,8.40
2018-04-11T01:06:34.587Z,8.20
2018-04-11T01:09:02.033Z,8.30
2018-04-11T01:11:29.482Z,8.40
2018-04-11T01:13:57.706Z,8.10
2018-04-11T01:16:25.153Z,8.10
2018-04-11T01:18:52.623Z,8.60
2018-04-11T01:21:20.060Z,8.60
2018-04-11T01:23:47.529Z,8.30
2018-04-11T01:26:14.994Z,8.20
2018-04-11T01:28:42.477Z,8.00
2018-04-11T01:31:09.943Z,7.90
2018-04-11T01:33:37.374Z,7.90
2018-04-11T01:36:04.850Z,8.00
2018-04-11T01:38:32.310Z,7.80
2018-04-11T01:40:59.790Z,7.60
2018-04-11T01:43:28.024Z,7.30
2018-04-11T01:45:55.487Z,7.30
2018-04-11T01:48:22.939Z,7.20
2018-04-11T01:50:50.402Z,7.10
2018-04-11T01:53:17.841Z,7.00
2018-04-11T01:55:45.299Z,6.90
2018-04-11T01:58:12.758Z,6.90
2018-04-11T02:00:40.218Z,6.80
2018-04-11T02:03:07.676Z,7.00
2018-04-11T02:05:35.133Z,7.20
2018-04-11T02:08:02.591Z,7.20
2018-04-11T02:10:30.053Z,7.30
2018-04-11T02:12:57.511Z,7.10
2018-04-11T02:15:24.963Z,7.10
2018-04-11T02:17:52.455Z,6.80
2018-04-11T02:20:19.902Z,6.80
2018-04-11T02:22:47.365Z,6.80
2018-04-11T02:25:14.822Z,6.80
2018-04-11T02:27:42.290Z,6.80
2018-04-11T02:30:09.782Z,6.50
2018-04-11T02:32:37.231Z,6.30
2018-04-11T02:35:04.684Z,6.30
2018-04-11T02:37:32.913Z,6.60
2018-04-11T02:40:00.381Z,6.60
2018-04-11T02:42:27.838Z,6.50
2018-04-11T02:44:55.334Z,6.30
2018-04-11T02:47:22.758Z,6.20
2018-04-11T02:49:50.202Z,6.20
2018-04-11T02:52:17.654Z,6.20
2018-04-11T02:54:45.090Z,6.20
2018-04-11T02:57:12.575Z,6.40
2018-04-11T02:59:40.075Z,6.80
2018-04-11T03:02:08.274Z,6.90
2018-04-11T03:04:35.735Z,6.90
2018-04-11T03:07:03.198Z,6.80
2018-04-11T03:09:30.659Z,6.70
2018-04-11T03:11:58.115Z,6.50
2018-04-11T03:14:25.622Z,6.40
2018-04-11T03:16:53.018Z,6.00
2018-04-11T03:19:20.478Z,5.80
2018-04-11T03:21:47.982Z,6.10
2018-04-11T03:24:15.408Z,5.90
2018-04-11T03:26:42.858Z,5.60
2018-04-11T03:29:10.310Z,5.50
2018-04-11T03:31:37.787Z,5.50
2018-04-11T03:34:05.268Z,5.70
2018-04-11T03:36:32.699Z,5.70
2018-04-11T03:39:00.155Z,5.90
2018-04-11T03:41:27.611Z,5.80
2018-04-11T03:43:55.083Z,5.90
2018-04-11T03:46:22.795Z,6.00
2018-04-11T03:48:50.990Z,5.90
2018-04-11T03:51:18.454Z,5.90
2018-04-11T03:53:45.898Z,5.80
2018-04-11T03:56:13.358Z,6.00
2018-04-11T03:58:40.806Z,6.20
2018-04-11T04:01:08.290Z,5.70
2018-04-11T04:03:35.746Z,5.40
2018-04-11T04:06:03.203Z,5.30
2018-04-11T04:08:30.646Z,5.40
2018-04-11T04:10:58.102Z,5.70
2018-04-11T04:13:37.338Z,6.20
2018-04-11T04:16:16.534Z,6.40
2018-04-11T04:18:56.723Z,6.80
2018-04-11T04:21:24.183Z,6.80
2018-04-11T04:23:51.650Z,7.10
2018-04-11T04:26:19.934Z,6.80
2018-04-11T04:28:47.394Z,5.60
2018-04-11T04:31:14.842Z,5.10
2018-04-11T04:33:42.298Z,4.80
2018-04-11T04:36:09.754Z,4.70
2018-04-11T04:38:37.962Z,5.60
2018-04-11T04:41:05.410Z,5.60
2018-04-11T04:43:32.853Z,6.10
2018-04-11T04:46:00.323Z,6.50
2018-04-11T04:48:27.771Z,5.70
2018-04-11T04:50:55.230Z,5.10
2018-04-11T04:53:22.691Z,4.90
2018-04-11T04:55:50.138Z,4.90
2018-04-11T04:58:17.590Z,4.90
2018-04-11T05:00:45.074Z,5.70
2018-04-11T05:03:12.520Z,5.80
2018-04-11T05:05:39.980Z,5.00
2018-04-11T05:08:07.437Z,5.30
2018-04-11T05:10:34.879Z,4.90
2018-04-11T05:13:02.359Z,5.10
2018-04-11T05:15:29.802Z,4.80
2018-04-11T05:17:57.253Z,4.60
2018-04-11T05:20:24.710Z,4.60
2018-04-11T05:22:52.162Z,4.70
2018-04-11T05:25:19.623Z,5.10
2018-04-11T05:27:47.078Z,5.10
2018-04-11T05:30:14.530Z,5.00
2018-04-11T05:32:42.046Z,4.80
2018-04-11T05:35:09.443Z,4.80
2018-04-11T05:37:36.902Z,4.90
2018-04-11T05:40:04.390Z,5.10
2018-04-11T05:42:31.826Z,5.20
2018-04-11T05:44:59.270Z,5.30
2018-04-11T05:47:26.734Z,5.40
2018-04-11T05:49:54.181Z,5.40
2018-04-11T05:52:21.634Z,5.70
2018-04-11T05:54:49.098Z,5.70
2018-04-11T05:57:16.550Z,5.70
2018-04-11T05:59:44.014Z,5.70
2018-04-11T06:02:11.466Z,5.10
2018-04-11T06:04:38.923Z,5.10
2018-04-11T06:07:06.370Z,5.80
2018-04-11T06:09:33.827Z,6.20
2018-04-11T06:12:01.305Z,6.50
2018-04-11T06:14:28.762Z,6.70
2018-04-11T06:16:56.224Z,6.50
2018-04-11T06:19:23.667Z,6.80
2018-04-11T06:21:51.110Z,6.50
2018-04-11T06:24:18.550Z,6.80
2018-04-11T06:26:45.990Z,6.70
2018-04-11T06:29:14.227Z,6.10
2018-04-11T06:31:41.690Z,6.10
2018-04-11T06:34:09.137Z,6.00
2018-04-11T06:36:36.577Z,6.70
2018-04-11T06:39:04.031Z,6.40
2018-04-11T06:41:31.490Z,6.70
2018-04-11T06:43:58.960Z,7.10
2018-04-11T06:46:26.421Z,8.10
2018-04-11T06:48:53.862Z,8.70
2018-04-11T06:51:21.327Z,9.50
2018-04-11T06:53:48.769Z,8.00
2018-04-11T06:56:16.226Z,7.50
2018-04-11T06:58:43.686Z,8.80
2018-04-11T07:01:11.151Z,8.70
2018-04-11T07:03:38.610Z,8.20
2018-04-11T07:06:06.073Z,8.50
2018-04-11T07:08:33.538Z,8.50
2018-04-11T07:11:00.995Z,9.00
2018-04-11T07:13:28.442Z,9.90
2018-04-11T07:15:55.914Z,10.20
2018-04-11T07:18:23.371Z,10.20
2018-04-11T07:20:50.823Z,11.50
2018-04-11T07:23:18.277Z,12.40
2018-04-11T07:25:45.754Z,11.20
2018-04-11T07:28:13.175Z,12.50
2018-04-11T07:30:40.629Z,13.20
2018-04-11T07:33:08.099Z,14.30
2018-04-11T07:35:35.550Z,15.10
2018-04-11T07:38:03.018Z,15.10
2018-04-11T07:40:30.478Z,15.10
2018-04-11T07:42:57.932Z,15.10
2018-04-11T07:45:25.382Z,15.70
2018-04-11T07:47:52.850Z,16.30
2018-04-11T07:50:20.297Z,16.70
2018-04-11T07:52:47.760Z,16.90
2018-04-11T07:55:15.217Z,14.20
2018-04-11T07:57:42.670Z,12.50
2018-04-11T08:00:10.133Z,13.30
2018-04-11T08:02:37.588Z,14.50
2018-04-11T08:05:05.036Z,16.10
2018-04-11T08:07:32.483Z,17.00
2018-04-11T08:09:59.997Z,17.20
2018-04-11T08:12:27.382Z,16.70
2018-04-11T08:14:54.859Z,16.90
2018-04-11T08:17:22.334Z,17.20
2018-04-11T08:19:49.775Z,16.80
2018-04-11T08:22:17.209Z,15.90
2018-04-11T08:24:44.662Z,16.70
2018-04-11T08:27:12.102Z,16.50
2018-04-11T08:29:40.314Z,17.70
2018-04-11T08:32:07.782Z,17.70
2018-04-11T08:34:35.233Z,16.30
2018-04-11T08:37:02.678Z,17.60
2018-04-11T08:39:30.149Z,17.80
2018-04-11T08:41:57.588Z,18.60
2018-04-11T08:44:25.025Z,18.00
2018-04-11T08:46:53.234Z,18.00
2018-04-11T08:49:20.677Z,18.00
2018-04-11T08:51:48.114Z,18.70
2018-04-11T08:54:16.338Z,16.90
2018-04-11T08:56:43.774Z,16.90
2018-04-11T08:59:11.233Z,18.40
2018-04-11T09:01:38.682Z,19.20
2018-04-11T09:04:06.129Z,19.60
2018-04-11T09:06:33.568Z,19.20
2018-04-11T09:09:01.775Z,18.60
2018-04-11T09:11:29.226Z,18.60
2018-04-11T09:13:56.809Z,18.90
2018-04-11T09:16:24.251Z,19.60
2018-04-11T09:18:52.072Z,20.20
2018-04-11T09:21:20.302Z,20.00
2018-04-11T09:23:47.738Z,19.90
2018-04-11T09:26:15.190Z,20.00
2018-04-11T09:28:42.638Z,20.50
2018-04-11T09:31:10.853Z,19.10
2018-04-11T09:33:38.298Z,19.10
2018-04-11T09:36:05.759Z,20.10
2018-04-11T09:38:33.201Z,18.80
2018-04-11T09:41:00.649Z,17.80
2018-04-11T09:43:28.084Z,18.20
2018-04-11T09:45:56.307Z,19.40
2018-04-11T09:48:23.750Z,19.40
2018-04-11T09:50:51.201Z,19.60
2018-04-11T09:53:18.637Z,20.30
2018-04-11T09:55:46.857Z,21.40
2018-04-11T09:58:14.290Z,21.40
2018-04-11T10:00:41.727Z,21.00
2018-04-11T10:03:09.949Z,20.10
2018-04-11T10:05:37.382Z,20.10
2018-04-11T10:08:04.834Z,21.00
2018-04-11T10:10:32.272Z,20.70
2018-04-11T10:13:00.482Z,22.00
2018-04-11T10:15:27.914Z,21.90
2018-04-11T10:17:55.362Z,19.50
2018-04-11T10:20:23.570Z,21.80
2018-04-11T10:22:51.015Z,21.70
2018-04-11T10:25:18.454Z,22.00
2018-04-11T10:27:46.670Z,22.40
2018-04-11T10:30:14.128Z,22.40
2018-04-11T10:32:41.574Z,20.30
2018-04-11T10:35:09.010Z,21.40
2018-04-11T10:37:36.462Z,21.30
2018-04-11T10:40:03.898Z,21.60
2018-04-11T10:42:31.365Z,21.00
2018-04-11T10:44:59.570Z,21.50
2018-04-11T10:47:27.018Z,21.50
2018-04-11T10:49:54.458Z,21.90
2018-04-11T10:52:22.665Z,20.90
2018-04-11T10:54:50.106Z,20.90
2018-04-11T10:57:17.550Z,21.60
2018-04-11T10:59:45.751Z,23.80
2018-04-11T11:02:13.209Z,23.80
2018-04-11T11:04:40.643Z,23.90
2018-04-11T11:07:08.846Z,22.90
2018-04-11T11:09:36.290Z,22.90
2018-04-11T11:12:03.754Z,24.10
2018-04-11T11:14:31.189Z,25.80
2018-04-11T11:16:58.645Z,25.20
2018-04-11T11:19:26.086Z,22.90
2018-04-11T11:21:54.299Z,21.60
2018-04-11T11:24:21.731Z,21.50
2018-04-11T11:26:49.941Z,19.90
2018-04-11T11:29:17.386Z,19.90
2018-04-11T11:31:44.843Z,20.80
2018-04-11T11:34:12.325Z,20.00
2018-04-11T11:36:39.761Z,22.00
2018-04-11T11:39:07.206Z,22.50
2018-04-11T11:41:34.675Z,21.30
2018-04-11T11:44:02.149Z,21.10
2018-04-11T11:46:29.598Z,20.60
2018-04-11T11:48:57.037Z,21.00
2018-04-11T11:51:24.498Z,20.20
2018-04-11T11:53:51.948Z,21.40
2018-04-11T11:56:19.398Z,21.70
2018-04-11T11:58:46.864Z,21.20
2018-04-11T12:01:14.306Z,20.90
2018-04-11T12:03:42.530Z,22.60
2018-04-11T12:06:09.966Z,22.60
2018-04-11T12:08:37.426Z,22.80
2018-04-11T12:11:04.887Z,24.00
2018-04-11T12:13:32.354Z,21.60
2018-04-11T12:15:59.790Z,20.60
2018-04-11T12:18:27.244Z,21.30
2018-04-11T12:20:54.685Z,19.60
2018-04-11T12:23:22.150Z,19.30
2018-04-11T12:25:49.594Z,18.50
2018-04-11T12:28:17.812Z,18.30
2018-04-11T12:30:45.274Z,18.30
2018-04-11T12:33:12.722Z,18.00
2018-04-11T12:35:40.154Z,18.80
2018-04-11T12:38:07.613Z,19.20
2018-04-11T12:40:35.062Z,20.50
2018-04-11T12:43:02.521Z,22.40
2018-04-11T12:45:29.957Z,21.00
2018-04-11T12:47:58.166Z,19.80
2018-04-11T12:50:25.604Z,19.70
2018-04-11T12:52:53.054Z,18.70
2018-04-11T12:55:21.258Z,17.50
2018-04-11T12:57:48.709Z,17.50
2018-04-11T13:00:16.150Z,17.70
2018-04-11T13:02:44.380Z,18.00
2018-04-11T13:05:11.850Z,17.90
2018-04-11T13:07:39.299Z,18.30
2018-04-11T13:10:06.726Z,19.30
2018-04-11T13:12:34.179Z,19.00
2018-04-11T13:15:01.683Z,18.60
2018-04-11T13:17:29.058Z,20.00
2018-04-11T13:19:57.285Z,20.00
2018-04-11T13:22:25.490Z,19.50
2018-04-11T13:24:52.931Z,19.50
2018-04-11T13:27:20.403Z,19.60
2018-04-11T13:29:47.846Z,19.40
2018-04-11T13:32:15.323Z,19.20
2018-04-11T13:34:42.766Z,19.00
2018-04-11T13:37:10.212Z,18.80
2018-04-11T13:39:37.671Z,18.50
2018-04-11T13:42:05.143Z,18.60
2018-04-11T13:44:32.587Z,19.70
2018-04-11T13:47:00.811Z,19.30
2018-04-11T13:49:28.252Z,19.30
2018-04-11T13:51:56.468Z,18.50
2018-04-11T13:54:23.899Z,18.50
2018-04-11T13:56:51.341Z,19.00
2018-04-11T13:59:19.542Z,18.90
2018-04-11T14:01:46.993Z,18.90
2018-04-11T14:04:14.447Z,18.80
2018-04-11T14:06:41.877Z,18.90
2018-04-11T14:09:10.094Z,18.90
2018-04-11T14:11:37.526Z,18.90
2018-04-11T14:14:05.762Z,18.70
2018-04-11T14:16:33.215Z,18.70
2018-04-11T14:19:00.708Z,18.60
2018-04-11T14:21:28.922Z,18.80
2018-04-11T14:23:56.369Z,18.80
2018-04-11T14:26:24.250Z,18.60
2018-04-11T14:28:51.723Z,18.80
2018-04-11T14:31:19.166Z,19.00
2018-04-11T14:33:46.639Z,18.90
2018-04-11T14:36:14.105Z,18.30
2018-04-11T14:38:41.565Z,18.10
2018-04-11T14:41:08.998Z,18.20
2018-04-11T14:43:36.464Z,18.50
2018-04-11T14:46:03.899Z,18.60
2018-04-11T14:48:31.329Z,18.70
2018-04-11T14:50:58.769Z,18.40
2018-04-11T14:53:27.018Z,18.80
2018-04-11T14:55:54.474Z,18.80
2018-04-11T14:58:21.922Z,18.90
2018-04-11T15:00:49.381Z,18.70
2018-04-11T15:03:16.854Z,18.90
2018-04-11T15:05:44.307Z,19.10
2018-04-11T15:08:11.751Z,19.10
2018-04-11T15:10:39.183Z,20.10
2018-04-11T15:13:06.629Z,20.40
2018-04-11T15:15:34.126Z,20.30
2018-04-11T15:18:02.291Z,18.70
2018-04-11T15:20:29.726Z,18.70
2018-04-11T15:22:57.181Z,18.70
2018-04-11T15:25:24.610Z,18.40
2018-04-11T15:27:52.826Z,17.90
2018-04-11T15:30:20.265Z,17.90
2018-04-11T15:32:47.709Z,18.20
2018-04-11T15:35:15.914Z,18.30
2018-04-11T15:37:43.354Z,18.30
2018-04-11T15:40:10.786Z,18.20
2018-04-11T15:42:38.996Z,18.00
2018-04-11T15:45:06.429Z,18.00
2018-04-11T15:47:33.882Z,17.80
2018-04-11T15:50:02.090Z,17.90
2018-04-11T15:52:29.525Z,17.80
2018-04-11T15:54:56.965Z,17.80
2018-04-11T15:57:25.188Z,17.90
2018-04-11T15:59:52.623Z,17.90
2018-04-11T16:02:20.065Z,17.70
2018-04-11T16:04:47.497Z,17.70
2018-04-11T16:07:14.933Z,17.40
2018-04-11T16:09:42.377Z,17.40
2018-04-11T16:12:09.826Z,17.30
2018-04-11T16:14:37.270Z,17.30
2018-04-11T16:17:04.705Z,17.10
2018-04-11T16:19:32.158Z,17.30
2018-04-11T16:22:00.359Z,17.20
2018-04-11T16:24:27.797Z,17.20
2018-04-11T16:26:55.239Z,17.10
2018-04-11T16:29:23.451Z,17.10
2018-04-11T16:31:50.904Z,17.10
2018-04-11T16:34:18.333Z,17.10
2018-04-11T16:36:46.550Z,17.10
2018-04-11T16:39:13.997Z,17.20
2018-04-11T16:41:41.431Z,17.20
2018-04-11T16:44:08.874Z,17.00
2018-04-11T16:46:37.085Z,16.90
2018-04-11T16:49:04.541Z,16.90
2018-04-11T16:51:31.980Z,16.80
2018-04-11T16:53:59.425Z,16.70
2018-04-11T16:56:27.635Z,16.80
2018-04-11T16:58:55.094Z,16.70
2018-04-11T17:01:22.535Z,16.80
2018-04-11T17:03:49.991Z,16.70
2018-04-11T17:06:17.419Z,16.60
2018-04-11T17:08:45.637Z,16.30
2018-04-11T17:11:13.080Z,16.30
2018-04-11T17:13:40.559Z,16.30
2018-04-11T17:16:08.043Z,16.20
2018-04-11T17:18:35.493Z,16.20
2018-04-11T17:21:14.737Z,16.20
2018-04-11T17:23:54.101Z,16.10
2018-04-11T17:26:34.229Z,16.20
2018-04-11T17:29:13.520Z,16.20
2018-04-11T17:31:40.953Z,16.30
2018-04-11T17:34:08.397Z,16.00
2018-04-11T17:36:36.608Z,16.00
2018-04-11T17:39:04.061Z,16.00
2018-04-11T17:41:31.486Z,15.70
2018-04-11T17:43:59.701Z,15.70
2018-04-11T17:46:27.138Z,15.70
2018-04-11T17:48:54.586Z,16.00
2018-04-11T17:51:22.029Z,16.20
2018-04-11T17:53:49.475Z,16.10
2018-04-11T17:56:16.901Z,15.70
2018-04-11T17:58:44.345Z,15.50
2018-04-11T18:01:11.774Z,15.60
2018-04-11T18:03:39.218Z,15.60
2018-04-11T18:06:07.426Z,15.50
2018-04-11T18:08:34.883Z,15.40
2018-04-11T18:11:02.318Z,15.40
2018-04-11T18:13:29.767Z,15.00
2018-04-11T18:15:57.989Z,15.00
2018-04-11T18:18:25.430Z,15.00
2018-04-11T18:20:52.875Z,15.00
2018-04-11T18:23:20.322Z,15.20
2018-04-11T18:25:47.758Z,15.30
2018-04-11T18:28:15.978Z,15.40
2018-04-11T18:30:43.430Z,15.40
2018-04-11T18:33:10.874Z,15.40
2018-04-11T18:35:38.325Z,15.10
2018-04-11T18:38:05.761Z,15.20
2018-04-11T18:40:33.987Z,14.70
2018-04-11T18:43:01.436Z,14.70
2018-04-11T18:45:28.899Z,14.50
2018-04-11T18:47:56.336Z,14.70
2018-04-11T18:50:23.805Z,14.40
2018-04-11T18:52:51.248Z,14.30
2018-04-11T18:55:18.689Z,14.40
2018-04-11T18:57:46.891Z,14.20
2018-04-11T19:00:14.341Z,14.30
2018-04-11T19:02:41.784Z,14.10
2018-04-11T19:05:09.235Z,14.00
2018-04-11T19:07:37.430Z,13.70
2018-04-11T19:10:04.874Z,13.70
2018-04-11T19:12:32.309Z,13.80
2018-04-11T19:15:00.531Z,13.80
2018-04-11T19:17:27.969Z,13.70
2018-04-11T19:19:55.436Z,13.90
2018-04-11T19:22:22.881Z,13.90
2018-04-11T19:24:50.321Z,14.00
2018-04-11T19:27:18.522Z,13.50
2018-04-11T19:29:45.969Z,13.50
2018-04-11T19:32:13.397Z,13.20
2018-04-11T19:34:40.855Z,13.40
2018-04-11T19:37:08.288Z,13.40
2018-04-11T19:39:35.731Z,13.30
2018-04-11T19:42:03.174Z,13.50
2018-04-11T19:44:30.617Z,13.50
2018-04-11T19:46:58.054Z,13.40
2018-04-11T19:49:26.270Z,13.20
2018-04-11T19:51:53.706Z,13.10
2018-04-11T19:54:21.186Z,13.10
2018-04-11T19:56:48.610Z,13.30
2018-04-11T19:59:16.069Z,13.30
2018-04-11T20:01:43.513Z,13.00
2018-04-11T20:04:11.746Z,12.90
2018-04-11T20:06:39.209Z,12.90
2018-04-11T20:09:06.670Z,12.90
2018-04-11T20:11:34.097Z,12.80
2018-04-11T20:14:01.555Z,13.00
2018-04-11T20:16:28.994Z,12.90
2018-04-11T20:18:56.442Z,13.00
2018-04-11T20:21:23.890Z,13.00
2018-04-11T20:23:52.120Z,12.60
2018-04-11T20:26:19.566Z,12.60
2018-04-11T20:28:47.029Z,12.60
2018-04-11T20:31:14.492Z,12.50
2018-04-11T20:33:41.946Z,12.50
2018-04-11T20:36:09.419Z,12.40
2018-04-11T20:38:36.860Z,12.30
2018-04-11T20:41:04.310Z,12.40
2018-04-11T20:43:31.773Z,12.50
2018-04-11T20:45:59.231Z,12.60
2018-04-11T20:48:26.667Z,12.60
2018-04-11T20:50:54.119Z,12.50
2018-04-11T20:53:21.563Z,12.60
2018-04-11T20:55:49.006Z,12.60
2018-04-11T20:58:17.218Z,12.50
2018-04-11T21:00:44.661Z,12.50
2018-04-11T21:03:12.108Z,12.60
2018-04-11T21:05:39.559Z,12.60
2018-04-11T21:08:07.013Z,12.40
2018-04-11T21:10:35.234Z,12.70
2018-04-11T21:13:02.697Z,12.70
2018-04-11T21:15:30.149Z,12.60
2018-04-11T21:17:57.606Z,12.40
2018-04-11T21:20:25.822Z,12.20
2018-04-11T21:22:54.030Z,12.10
2018-04-11T21:25:21.490Z,12.10
2018-04-11T21:27:48.953Z,12.10
2018-04-11T21:30:16.404Z,12.00
2018-04-11T21:32:43.850Z,11.90
2018-04-11T21:35:11.311Z,12.00
2018-04-11T21:37:38.745Z,12.10
2018-04-11T21:40:06.971Z,12.30
2018-04-11T21:42:34.414Z,12.30
2018-04-11T21:45:01.890Z,12.30
2018-04-11T21:47:29.342Z,12.30
2018-04-11T21:49:56.798Z,12.20
2018-04-11T21:52:24.242Z,12.20
2018-04-11T21:54:51.698Z,12.10
2018-04-11T21:57:19.142Z,12.10
2018-04-11T21:59:46.610Z,12.20
2018-04-11T22:02:14.062Z,12.00
2018-04-11T22:04:41.526Z,12.10
2018-04-11T22:07:08.970Z,12.00
2018-04-11T22:09:36.430Z,12.50
2018-04-11T22:12:03.867Z,12.30
2018-04-11T22:14:32.106Z,12.40
2018-04-11T22:16:59.555Z,12.40
2018-04-11T22:19:27.003Z,12.40
2018-04-11T22:21:54.466Z,12.50
2018-04-11T22:24:21.926Z,12.40
2018-04-11T22:26:49.361Z,12.30
2018-04-11T22:29:16.834Z,12.20
2018-04-11T22:31:44.274Z,12.70
2018-04-11T22:34:11.732Z,12.80
2018-04-11T22:36:39.178Z,12.80
2018-04-11T22:39:06.622Z,12.80
2018-04-11T22:41:34.069Z,12.90
2018-04-11T22:44:02.265Z,12.40
2018-04-11T22:46:29.718Z,12.40
2018-04-11T22:48:57.161Z,12.30
2018-04-11T22:51:25.382Z,12.10
2018-04-11T22:53:52.830Z,12.20
2018-04-11T22:56:20.291Z,12.30
2018-04-11T22:58:47.731Z,12.10
2018-04-11T23:01:15.190Z,12.30
2018-04-11T23:03:42.633Z,12.20
2018-04-11T23:06:10.094Z,12.20
2018-04-11T23:08:37.533Z,12.20
2018-04-11T23:11:05.744Z,11.70
2018-04-11T23:13:33.197Z,11.70
2018-04-11T23:16:00.658Z,11.90
2018-04-11T23:18:28.117Z,11.50
2018-04-11T23:20:55.559Z,11.70
2018-04-11T23:23:23.006Z,11.90
2018-04-11T23:25:50.470Z,11.80
2018-04-11T23:28:17.917Z,11.90
2018-04-11T23:30:45.373Z,11.90
2018-04-11T23:33:12.808Z,11.20
2018-04-11T23:35:41.031Z,11.60
2018-04-11T23:38:08.470Z,11.60
2018-04-11T23:40:35.926Z,11.80
2018-04-11T23:43:03.361Z,11.80
2018-04-11T23:45:31.586Z,11.20
2018-04-11T23:47:59.018Z,11.20
2018-04-11T23:50:26.475Z,11.30
2018-04-11T23:52:53.914Z,11.00
2018-04-11T23:55:22.130Z,10.80
2018-04-11T23:57:49.580Z,10.80
